sensor_id;sensor_type;location;lat;lon;timestamp;pressure;altitude;pressure_sealevel;temperature;humidity
58072;BME280;60383;46.626;18.866;2022-07-11T00:00:04;100652.53;;;16.57;46.42
58072;BME280;60383;46.626;18.866;2022-07-11T00:02:30;100655.03;;;16.52;46.43
58072;BME280;60383;46.626;18.866;2022-07-11T00:04:56;100656.34;;;16.41;46.75
58072;BME280;60383;46.626;18.866;2022-07-11T00:07:21;100655.03;;;16.37;46.86
58072;BME280;60383;46.626;18.866;2022-07-11T00:09:47;100666.81;;;16.31;47.24
58072;BME280;60383;46.626;18.866;2022-07-11T00:12:13;100669.28;;;16.25;47.28
58072;BME280;60383;46.626;18.866;2022-07-11T00:14:39;100666.53;;;16.25;47.35
58072;BME280;60383;46.626;18.866;2022-07-11T00:17:06;100669.69;;;16.22;47.52
58072;BME280;60383;46.626;18.866;2022-07-11T00:19:34;100668.91;;;16.13;47.77
58072;BME280;60383;46.626;18.866;2022-07-11T00:21:59;100676.53;;;16.26;47.38
58072;BME280;60383;46.626;18.866;2022-07-11T00:24:24;100670.34;;;16.24;47.51
58072;BME280;60383;46.626;18.866;2022-07-11T00:26:50;100672.94;;;16.26;47.49
58072;BME280;60383;46.626;18.866;2022-07-11T00:29:17;100673.31;;;16.23;47.56
58072;BME280;60383;46.626;18.866;2022-07-11T00:31:42;100680.06;;;16.05;47.97
58072;BME280;60383;46.626;18.866;2022-07-11T00:34:08;100680.06;;;16.05;47.98
58072;BME280;60383;46.626;18.866;2022-07-11T00:36:34;100672.31;;;16.01;48.14
58072;BME280;60383;46.626;18.866;2022-07-11T00:39:00;100679.91;;;15.84;48.55
58072;BME280;60383;46.626;18.866;2022-07-11T00:41:25;100685.84;;;15.95;48.49
58072;BME280;60383;46.626;18.866;2022-07-11T00:43:56;100687.53;;;15.96;47.97
58072;BME280;60383;46.626;18.866;2022-07-11T00:46:23;100680.88;;;15.91;48.34
58072;BME280;60383;46.626;18.866;2022-07-11T00:48:49;100681.78;;;15.83;48.58
58072;BME280;60383;46.626;18.866;2022-07-11T00:51:15;100682.41;;;15.70;48.86
58072;BME280;60383;46.626;18.866;2022-07-11T00:53:43;100684.91;;;15.80;48.76
58072;BME280;60383;46.626;18.866;2022-07-11T00:56:09;100679.16;;;15.67;48.93
58072;BME280;60383;46.626;18.866;2022-07-11T00:58:35;100682.34;;;15.78;48.73
58072;BME280;60383;46.626;18.866;2022-07-11T01:01:01;100681.16;;;15.73;48.95
58072;BME280;60383;46.626;18.866;2022-07-11T01:03:27;100687.13;;;15.61;49.25
58072;BME280;60383;46.626;18.866;2022-07-11T01:05:52;100680.19;;;15.65;49.22
58072;BME280;60383;46.626;18.866;2022-07-11T01:08:18;100679.41;;;15.57;49.47
58072;BME280;60383;46.626;18.866;2022-07-11T01:10:44;100681.72;;;15.45;49.66
58072;BME280;60383;46.626;18.866;2022-07-11T01:13:09;100683.53;;;15.53;49.53
58072;BME280;60383;46.626;18.866;2022-07-11T01:15:35;100678.97;;;15.45;49.65
58072;BME280;60383;46.626;18.866;2022-07-11T01:18:01;100685.28;;;15.54;49.43
58072;BME280;60383;46.626;18.866;2022-07-11T01:20:27;100682.22;;;15.48;49.42
58072;BME280;60383;46.626;18.866;2022-07-11T01:22:54;100688.31;;;15.59;49.25
58072;BME280;60383;46.626;18.866;2022-07-11T01:25:19;100683.88;;;15.58;49.46
58072;BME280;60383;46.626;18.866;2022-07-11T01:28:05;100685.94;;;15.56;49.45
58072;BME280;60383;46.626;18.866;2022-07-11T01:30:33;100679.56;;;15.32;49.90
58072;BME280;60383;46.626;18.866;2022-07-11T01:32:59;100680.78;;;15.29;50.20
58072;BME280;60383;46.626;18.866;2022-07-11T01:35:26;100685.16;;;15.24;50.14
58072;BME280;60383;46.626;18.866;2022-07-11T01:37:52;100693.00;;;15.35;50.17
58072;BME280;60383;46.626;18.866;2022-07-11T01:40:18;100687.28;;;15.37;50.19
58072;BME280;60383;46.626;18.866;2022-07-11T01:42:45;100687.34;;;15.28;50.29
58072;BME280;60383;46.626;18.866;2022-07-11T01:45:11;100698.31;;;15.37;49.82
58072;BME280;60383;46.626;18.866;2022-07-11T01:47:36;100694.75;;;15.28;49.91
58072;BME280;60383;46.626;18.866;2022-07-11T01:50:03;100691.34;;;15.17;50.30
58072;BME280;60383;46.626;18.866;2022-07-11T01:52:29;100684.84;;;15.10;50.57
58072;BME280;60383;46.626;18.866;2022-07-11T01:54:54;100685.75;;;15.02;50.60
58072;BME280;60383;46.626;18.866;2022-07-11T01:57:19;100686.69;;;14.95;51.01
58072;BME280;60383;46.626;18.866;2022-07-11T01:59:45;100687.84;;;15.00;50.58
58072;BME280;60383;46.626;18.866;2022-07-11T02:02:12;100681.25;;;15.10;50.31
58072;BME280;60383;46.626;18.866;2022-07-11T02:04:37;100679.03;;;15.05;50.46
58072;BME280;60383;46.626;18.866;2022-07-11T02:07:03;100686.50;;;14.96;50.85
58072;BME280;60383;46.626;18.866;2022-07-11T02:09:28;100678.13;;;14.81;50.97
58072;BME280;60383;46.626;18.866;2022-07-11T02:11:53;100683.63;;;14.81;51.10
58072;BME280;60383;46.626;18.866;2022-07-11T02:14:19;100684.50;;;14.74;51.49
58072;BME280;60383;46.626;18.866;2022-07-11T02:16:44;100686.56;;;14.80;51.38
58072;BME280;60383;46.626;18.866;2022-07-11T02:19:10;100682.94;;;14.79;51.27
58072;BME280;60383;46.626;18.866;2022-07-11T02:21:36;100694.47;;;14.83;51.31
58072;BME280;60383;46.626;18.866;2022-07-11T02:24:02;100686.09;;;14.60;51.91
58072;BME280;60383;46.626;18.866;2022-07-11T02:26:28;100694.19;;;14.61;51.75
58072;BME280;60383;46.626;18.866;2022-07-11T02:28:53;100690.38;;;14.79;51.22
58072;BME280;60383;46.626;18.866;2022-07-11T02:31:19;100693.84;;;14.64;51.84
58072;BME280;60383;46.626;18.866;2022-07-11T02:33:45;100692.25;;;14.78;51.31
58072;BME280;60383;46.626;18.866;2022-07-11T02:36:10;100693.84;;;14.64;51.87
58072;BME280;60383;46.626;18.866;2022-07-11T02:38:36;100693.50;;;14.67;51.79
58072;BME280;60383;46.626;18.866;2022-07-11T02:41:01;100685.31;;;14.34;52.36
58072;BME280;60383;46.626;18.866;2022-07-11T02:43:27;100689.41;;;14.47;52.38
58072;BME280;60383;46.626;18.866;2022-07-11T02:45:53;100687.13;;;14.59;51.88
58072;BME280;60383;46.626;18.866;2022-07-11T02:48:19;100691.75;;;14.75;51.78
58072;BME280;60383;46.626;18.866;2022-07-11T02:50:45;100687.13;;;14.75;51.79
58072;BME280;60383;46.626;18.866;2022-07-11T02:53:11;100687.44;;;14.80;51.65
58072;BME280;60383;46.626;18.866;2022-07-11T02:55:36;100697.75;;;14.87;51.39
58072;BME280;60383;46.626;18.866;2022-07-11T02:58:02;100698.28;;;14.74;52.01
58072;BME280;60383;46.626;18.866;2022-07-11T03:00:27;100696.56;;;14.73;51.75
58072;BME280;60383;46.626;18.866;2022-07-11T03:02:53;100690.03;;;14.74;52.12
58072;BME280;60383;46.626;18.866;2022-07-11T03:05:19;100687.78;;;14.77;51.94
58072;BME280;60383;46.626;18.866;2022-07-11T03:07:44;100686.25;;;14.75;51.95
58072;BME280;60383;46.626;18.866;2022-07-11T03:10:10;100681.09;;;14.63;52.61
58072;BME280;60383;46.626;18.866;2022-07-11T03:12:36;100686.59;;;14.63;52.61
58072;BME280;60383;46.626;18.866;2022-07-11T03:15:02;100683.50;;;14.66;52.61
58072;BME280;60383;46.626;18.866;2022-07-11T03:17:27;100689.34;;;14.63;52.73
58072;BME280;60383;46.626;18.866;2022-07-11T03:19:53;100686.94;;;14.68;52.73
58072;BME280;60383;46.626;18.866;2022-07-11T03:22:18;100689.19;;;14.73;52.96
58072;BME280;60383;46.626;18.866;2022-07-11T03:24:44;100695.53;;;14.74;52.62
58072;BME280;60383;46.626;18.866;2022-07-11T03:27:10;100688.16;;;14.74;53.15
58072;BME280;60383;46.626;18.866;2022-07-11T03:29:36;100687.66;;;14.71;52.95
58072;BME280;60383;46.626;18.866;2022-07-11T03:32:01;100692.94;;;14.80;52.99
58072;BME280;60383;46.626;18.866;2022-07-11T03:34:27;100699.31;;;14.81;53.14
58072;BME280;60383;46.626;18.866;2022-07-11T03:36:53;100687.06;;;14.83;52.81
58072;BME280;60383;46.626;18.866;2022-07-11T03:39:19;100690.50;;;14.85;53.29
58072;BME280;60383;46.626;18.866;2022-07-11T03:41:46;100696.22;;;14.84;52.91
58072;BME280;60383;46.626;18.866;2022-07-11T03:44:11;100694.59;;;14.90;53.14
58072;BME280;60383;46.626;18.866;2022-07-11T03:46:37;100697.25;;;14.83;53.40
58072;BME280;60383;46.626;18.866;2022-07-11T03:49:02;100700.19;;;14.81;53.39
58072;BME280;60383;46.626;18.866;2022-07-11T03:51:28;100697.03;;;14.93;53.34
58072;BME280;60383;46.626;18.866;2022-07-11T03:53:53;100707.31;;;14.99;53.19
58072;BME280;60383;46.626;18.866;2022-07-11T03:56:19;100708.03;;;15.01;52.95
58072;BME280;60383;46.626;18.866;2022-07-11T03:58:48;100695.84;;;15.18;54.19
58072;BME280;60383;46.626;18.866;2022-07-11T04:01:15;100700.72;;;15.40;53.57
58072;BME280;60383;46.626;18.866;2022-07-11T04:03:41;100693.00;;;15.58;52.77
58072;BME280;60383;46.626;18.866;2022-07-11T04:06:06;100697.16;;;15.86;52.08
58072;BME280;60383;46.626;18.866;2022-07-11T04:08:31;100703.81;;;15.91;52.10
58072;BME280;60383;46.626;18.866;2022-07-11T04:10:57;100704.56;;;15.85;51.42
58072;BME280;60383;46.626;18.866;2022-07-11T04:13:22;100698.22;;;16.00;51.14
58072;BME280;60383;46.626;18.866;2022-07-11T04:15:48;100697.41;;;16.14;50.90
58072;BME280;60383;46.626;18.866;2022-07-11T04:18:13;100699.97;;;16.31;50.25
58072;BME280;60383;46.626;18.866;2022-07-11T04:20:39;100704.66;;;16.30;50.21
58072;BME280;60383;46.626;18.866;2022-07-11T04:23:05;100707.91;;;16.34;50.57
58072;BME280;60383;46.626;18.866;2022-07-11T04:25:30;100709.06;;;16.39;50.27
58072;BME280;60383;46.626;18.866;2022-07-11T04:27:56;100711.63;;;16.41;49.64
58072;BME280;60383;46.626;18.866;2022-07-11T04:30:21;100707.81;;;16.57;49.81
58072;BME280;60383;46.626;18.866;2022-07-11T04:32:47;100716.72;;;16.67;49.92
58072;BME280;60383;46.626;18.866;2022-07-11T04:35:14;100715.84;;;16.67;49.32
58072;BME280;60383;46.626;18.866;2022-07-11T04:37:39;100716.28;;;16.85;49.26
58072;BME280;60383;46.626;18.866;2022-07-11T04:40:05;100707.34;;;16.98;48.86
58072;BME280;60383;46.626;18.866;2022-07-11T04:42:31;100714.31;;;17.09;48.62
58072;BME280;60383;46.626;18.866;2022-07-11T04:44:56;100714.50;;;16.92;48.89
58072;BME280;60383;46.626;18.866;2022-07-11T04:47:22;100705.81;;;17.11;48.85
58072;BME280;60383;46.626;18.866;2022-07-11T04:49:47;100708.63;;;17.32;48.48
58072;BME280;60383;46.626;18.866;2022-07-11T04:52:15;100712.13;;;17.41;47.75
58072;BME280;60383;46.626;18.866;2022-07-11T04:54:41;100711.22;;;17.55;47.63
58072;BME280;60383;46.626;18.866;2022-07-11T04:57:06;100717.09;;;17.67;47.66
58072;BME280;60383;46.626;18.866;2022-07-11T04:59:32;100709.25;;;17.71;47.09
58072;BME280;60383;46.626;18.866;2022-07-11T05:01:57;100718.47;;;17.78;46.84
58072;BME280;60383;46.626;18.866;2022-07-11T05:04:22;100712.72;;;17.58;47.65
58072;BME280;60383;46.626;18.866;2022-07-11T05:06:48;100722.31;;;17.77;46.74
58072;BME280;60383;46.626;18.866;2022-07-11T05:09:13;100720.66;;;17.83;47.19
58072;BME280;60383;46.626;18.866;2022-07-11T05:11:39;100714.19;;;17.76;47.60
58072;BME280;60383;46.626;18.866;2022-07-11T05:14:04;100717.56;;;17.71;47.69
58072;BME280;60383;46.626;18.866;2022-07-11T05:16:30;100728.41;;;17.51;47.46
58072;BME280;60383;46.626;18.866;2022-07-11T05:18:55;100722.50;;;17.76;47.52
58072;BME280;60383;46.626;18.866;2022-07-11T05:21:21;100722.03;;;17.72;47.60
58072;BME280;60383;46.626;18.866;2022-07-11T05:23:49;100720.63;;;17.98;46.77
58072;BME280;60383;46.626;18.866;2022-07-11T05:26:15;100730.53;;;17.92;46.77
58072;BME280;60383;46.626;18.866;2022-07-11T05:28:42;100734.88;;;17.95;46.94
58072;BME280;60383;46.626;18.866;2022-07-11T05:31:07;100733.41;;;17.99;47.33
58072;BME280;60383;46.626;18.866;2022-07-11T05:33:33;100737.00;;;18.21;47.06
58072;BME280;60383;46.626;18.866;2022-07-11T05:36:02;100741.00;;;18.40;46.30
58072;BME280;60383;46.626;18.866;2022-07-11T05:38:28;100744.63;;;18.41;46.29
58072;BME280;60383;46.626;18.866;2022-07-11T05:40:53;100746.25;;;18.57;46.26
58072;BME280;60383;46.626;18.866;2022-07-11T05:43:19;100745.69;;;18.68;45.39
58072;BME280;60383;46.626;18.866;2022-07-11T05:45:44;100750.78;;;18.64;45.51
58072;BME280;60383;46.626;18.866;2022-07-11T05:48:10;100756.28;;;18.58;45.74
58072;BME280;60383;46.626;18.866;2022-07-11T05:50:35;100750.56;;;18.66;45.19
58072;BME280;60383;46.626;18.866;2022-07-11T05:53:01;100754.97;;;18.54;45.85
58072;BME280;60383;46.626;18.866;2022-07-11T05:55:28;100757.63;;;18.68;45.93
58072;BME280;60383;46.626;18.866;2022-07-11T05:57:53;100748.19;;;18.91;45.46
58072;BME280;60383;46.626;18.866;2022-07-11T06:00:19;100751.66;;;19.00;44.98
58072;BME280;60383;46.626;18.866;2022-07-11T06:02:46;100753.44;;;19.14;44.74
58072;BME280;60383;46.626;18.866;2022-07-11T06:05:12;100750.25;;;19.18;44.80
58072;BME280;60383;46.626;18.866;2022-07-11T06:07:38;100751.03;;;19.05;44.81
58072;BME280;60383;46.626;18.866;2022-07-11T06:10:22;100751.34;;;19.23;44.57
58072;BME280;60383;46.626;18.866;2022-07-11T06:12:48;100746.50;;;19.39;44.57
58072;BME280;60383;46.626;18.866;2022-07-11T06:15:13;100749.75;;;19.49;44.77
58072;BME280;60383;46.626;18.866;2022-07-11T06:17:38;100749.56;;;19.64;43.88
58072;BME280;60383;46.626;18.866;2022-07-11T06:20:04;100749.34;;;19.66;44.24
58072;BME280;60383;46.626;18.866;2022-07-11T06:22:30;100757.13;;;19.84;43.43
58072;BME280;60383;46.626;18.866;2022-07-11T06:24:55;100751.16;;;19.87;43.56
58072;BME280;60383;46.626;18.866;2022-07-11T06:27:21;100754.34;;;19.84;43.36
58072;BME280;60383;46.626;18.866;2022-07-11T06:29:46;100756.47;;;19.95;43.26
58072;BME280;60383;46.626;18.866;2022-07-11T06:32:12;100755.22;;;19.91;43.07
58072;BME280;60383;46.626;18.866;2022-07-11T06:34:37;100755.66;;;20.08;42.63
58072;BME280;60383;46.626;18.866;2022-07-11T06:37:03;100758.00;;;20.18;42.35
58072;BME280;60383;46.626;18.866;2022-07-11T06:39:29;100756.50;;;20.22;42.83
58072;BME280;60383;46.626;18.866;2022-07-11T06:41:54;100746.47;;;20.34;42.87
58072;BME280;60383;46.626;18.866;2022-07-11T06:44:20;100747.50;;;20.60;41.82
58072;BME280;60383;46.626;18.866;2022-07-11T06:46:45;100746.22;;;20.63;41.28
58072;BME280;60383;46.626;18.866;2022-07-11T06:49:11;100757.09;;;20.91;40.75
58072;BME280;60383;46.626;18.866;2022-07-11T06:51:38;100752.19;;;20.93;40.75
58072;BME280;60383;46.626;18.866;2022-07-11T06:54:04;100753.44;;;20.97;40.09
58072;BME280;60383;46.626;18.866;2022-07-11T06:56:30;100754.72;;;21.01;40.97
58072;BME280;60383;46.626;18.866;2022-07-11T06:58:55;100761.31;;;21.14;40.13
58072;BME280;60383;46.626;18.866;2022-07-11T07:01:21;100762.22;;;21.08;40.36
58072;BME280;60383;46.626;18.866;2022-07-11T07:03:46;100750.41;;;21.12;39.72
58072;BME280;60383;46.626;18.866;2022-07-11T07:06:12;100760.53;;;20.93;40.25
58072;BME280;60383;46.626;18.866;2022-07-11T07:08:37;100759.91;;;20.78;40.50
58072;BME280;60383;46.626;18.866;2022-07-11T07:11:03;100754.97;;;20.59;40.61
58072;BME280;60383;46.626;18.866;2022-07-11T07:13:29;100759.53;;;20.40;41.26
58072;BME280;60383;46.626;18.866;2022-07-11T07:15:56;100757.59;;;20.41;40.82
58072;BME280;60383;46.626;18.866;2022-07-11T07:18:25;100757.81;;;20.73;40.37
58072;BME280;60383;46.626;18.866;2022-07-11T07:20:51;100762.50;;;20.79;40.77
58072;BME280;60383;46.626;18.866;2022-07-11T07:23:17;100757.94;;;21.05;40.57
58072;BME280;60383;46.626;18.866;2022-07-11T07:25:43;100761.50;;;21.19;40.61
58072;BME280;60383;46.626;18.866;2022-07-11T07:28:08;100757.34;;;21.42;39.89
58072;BME280;60383;46.626;18.866;2022-07-11T07:30:34;100749.78;;;21.55;39.99
58072;BME280;60383;46.626;18.866;2022-07-11T07:33:00;100755.53;;;21.67;39.32
58072;BME280;60383;46.626;18.866;2022-07-11T07:35:28;100753.19;;;22.03;37.79
58072;BME280;60383;46.626;18.866;2022-07-11T07:37:54;100752.97;;;21.98;37.54
58072;BME280;60383;46.626;18.866;2022-07-11T07:40:20;100753.25;;;22.22;36.87
58072;BME280;60383;46.626;18.866;2022-07-11T07:42:45;100746.78;;;22.21;37.47
58072;BME280;60383;46.626;18.866;2022-07-11T07:45:11;100745.66;;;22.04;37.15
58072;BME280;60383;46.626;18.866;2022-07-11T07:47:36;100739.38;;;22.40;35.95
58072;BME280;60383;46.626;18.866;2022-07-11T07:50:04;100747.97;;;22.39;36.78
58072;BME280;60383;46.626;18.866;2022-07-11T07:52:30;100749.31;;;22.55;36.05
58072;BME280;60383;46.626;18.866;2022-07-11T07:54:55;100750.25;;;22.48;35.26
58072;BME280;60383;46.626;18.866;2022-07-11T07:57:20;100753.16;;;22.60;34.76
58072;BME280;60383;46.626;18.866;2022-07-11T07:59:46;100755.66;;;22.43;33.82
58072;BME280;60383;46.626;18.866;2022-07-11T08:02:11;100744.84;;;22.72;33.61
58072;BME280;60383;46.626;18.866;2022-07-11T08:04:37;100750.53;;;22.84;34.20
58072;BME280;60383;46.626;18.866;2022-07-11T08:07:02;100752.72;;;22.82;34.52
58072;BME280;60383;46.626;18.866;2022-07-11T08:09:28;100746.50;;;22.80;34.54
58072;BME280;60383;46.626;18.866;2022-07-11T08:11:54;100736.06;;;23.12;34.17
58072;BME280;60383;46.626;18.866;2022-07-11T08:14:19;100744.19;;;23.14;34.31
58072;BME280;60383;46.626;18.866;2022-07-11T08:16:45;100739.78;;;23.06;34.73
58072;BME280;60383;46.626;18.866;2022-07-11T08:19:12;100730.53;;;23.24;34.41
58072;BME280;60383;46.626;18.866;2022-07-11T08:21:38;100743.03;;;23.03;34.65
58072;BME280;60383;46.626;18.866;2022-07-11T08:24:04;100740.84;;;23.42;34.48
58072;BME280;60383;46.626;18.866;2022-07-11T08:26:30;100740.28;;;23.52;33.94
58072;BME280;60383;46.626;18.866;2022-07-11T08:28:55;100745.09;;;23.45;34.45
58072;BME280;60383;46.626;18.866;2022-07-11T08:31:22;100742.31;;;23.75;33.67
58072;BME280;60383;46.626;18.866;2022-07-11T08:33:47;100738.44;;;23.76;33.50
58072;BME280;60383;46.626;18.866;2022-07-11T08:36:13;100742.06;;;23.96;33.75
58072;BME280;60383;46.626;18.866;2022-07-11T08:38:38;100736.00;;;23.99;33.39
58072;BME280;60383;46.626;18.866;2022-07-11T08:41:05;100737.53;;;23.95;33.32
58072;BME280;60383;46.626;18.866;2022-07-11T08:43:31;100725.66;;;23.99;32.38
58072;BME280;60383;46.626;18.866;2022-07-11T08:45:56;100730.91;;;23.89;33.30
58072;BME280;60383;46.626;18.866;2022-07-11T08:48:23;100732.31;;;23.98;32.61
58072;BME280;60383;46.626;18.866;2022-07-11T08:50:51;100747.81;;;24.13;32.93
58072;BME280;60383;46.626;18.866;2022-07-11T08:53:17;100738.19;;;24.08;32.17
58072;BME280;60383;46.626;18.866;2022-07-11T08:55:42;100730.69;;;24.21;32.03
58072;BME280;60383;46.626;18.866;2022-07-11T08:58:09;100726.06;;;24.50;31.65
58072;BME280;60383;46.626;18.866;2022-07-11T09:00:35;100728.97;;;24.55;30.99
58072;BME280;60383;46.626;18.866;2022-07-11T09:03:02;100722.53;;;24.55;30.89
58072;BME280;60383;46.626;18.866;2022-07-11T09:05:31;100732.25;;;24.29;31.43
58072;BME280;60383;46.626;18.866;2022-07-11T09:07:56;100724.25;;;24.44;30.75
58072;BME280;60383;46.626;18.866;2022-07-11T09:10:22;100717.78;;;24.55;30.90
58072;BME280;60383;46.626;18.866;2022-07-11T09:13:04;100725.13;;;24.80;30.49
58072;BME280;60383;46.626;18.866;2022-07-11T09:15:43;100727.97;;;25.09;30.51
58072;BME280;60383;46.626;18.866;2022-07-11T09:20:59;100720.00;;;25.71;28.33
58072;BME280;60383;46.626;18.866;2022-07-11T09:23:44;100723.38;;;25.56;28.69
58072;BME280;60383;46.626;18.866;2022-07-11T09:26:32;100718.09;;;25.59;28.64
58072;BME280;60383;46.626;18.866;2022-07-11T09:29:02;100714.28;;;25.65;28.28
58072;BME280;60383;46.626;18.866;2022-07-11T09:31:30;100720.00;;;25.71;28.64
58072;BME280;60383;46.626;18.866;2022-07-11T09:34:00;100711.47;;;25.94;28.59
58072;BME280;60383;46.626;18.866;2022-07-11T09:36:37;100709.50;;;25.95;28.36
58072;BME280;60383;46.626;18.866;2022-07-11T09:39:04;100713.59;;;26.04;28.21
58072;BME280;60383;46.626;18.866;2022-07-11T09:41:34;100725.63;;;26.17;28.47
58072;BME280;60383;46.626;18.866;2022-07-11T09:44:13;100721.00;;;26.44;26.98
58072;BME280;60383;46.626;18.866;2022-07-11T09:46:40;100711.50;;;26.28;27.05
58072;BME280;60383;46.626;18.866;2022-07-11T09:49:07;100711.72;;;26.44;26.88
58072;BME280;60383;46.626;18.866;2022-07-11T09:51:33;100724.06;;;26.77;25.75
58072;BME280;60383;46.626;18.866;2022-07-11T09:54:00;100718.63;;;26.92;25.49
58072;BME280;60383;46.626;18.866;2022-07-11T09:56:43;100715.66;;;26.99;25.91
58072;BME280;60383;46.626;18.866;2022-07-11T09:59:11;100711.97;;;26.99;26.21
58072;BME280;60383;46.626;18.866;2022-07-11T10:01:39;100713.63;;;27.17;24.55
58072;BME280;60383;46.626;18.866;2022-07-11T10:04:06;100707.09;;;27.11;25.32
58072;BME280;60383;46.626;18.866;2022-07-11T10:06:33;100706.84;;;27.13;25.62
58072;BME280;60383;46.626;18.866;2022-07-11T10:08:58;100706.72;;;26.12;26.47
58072;BME280;60383;46.626;18.866;2022-07-11T10:11:24;100718.03;;;26.34;26.33
58072;BME280;60383;46.626;18.866;2022-07-11T10:13:50;100706.19;;;26.83;25.48
58072;BME280;60383;46.626;18.866;2022-07-11T10:19:24;100705.66;;;27.31;24.41
58072;BME280;60383;46.626;18.866;2022-07-11T10:24:59;100704.72;;;27.25;24.78
58072;BME280;60383;46.626;18.866;2022-07-11T10:29:55;100704.13;;;27.23;24.38
58072;BME280;60383;46.626;18.866;2022-07-11T10:32:21;100699.25;;;26.91;25.00
58072;BME280;60383;46.626;18.866;2022-07-11T10:35:14;100705.63;;;26.13;25.44
58072;BME280;60383;46.626;18.866;2022-07-11T10:37:48;100699.78;;;25.86;26.11
58072;BME280;60383;46.626;18.866;2022-07-11T10:40:14;100698.31;;;25.66;26.42
58072;BME280;60383;46.626;18.866;2022-07-11T10:42:41;100701.56;;;25.92;26.71
58072;BME280;60383;46.626;18.866;2022-07-11T10:45:09;100698.44;;;26.05;27.17
58072;BME280;60383;46.626;18.866;2022-07-11T10:47:42;100693.50;;;26.46;26.61
58072;BME280;60383;46.626;18.866;2022-07-11T10:53:00;100692.09;;;26.10;26.68
58072;BME280;60383;46.626;18.866;2022-07-11T10:55:35;100693.34;;;25.85;25.80
58072;BME280;60383;46.626;18.866;2022-07-11T10:58:25;100688.63;;;25.57;26.00
58072;BME280;60383;46.626;18.866;2022-07-11T11:01:10;100692.00;;;25.59;26.52
58072;BME280;60383;46.626;18.866;2022-07-11T11:03:36;100696.38;;;25.38;26.84
58072;BME280;60383;46.626;18.866;2022-07-11T11:06:02;100690.38;;;25.34;27.26
58072;BME280;60383;46.626;18.866;2022-07-11T11:10:57;100703.25;;;25.06;26.94
58072;BME280;60383;46.626;18.866;2022-07-11T11:13:23;100698.19;;;25.44;27.31
58072;BME280;60383;46.626;18.866;2022-07-11T11:15:53;100700.50;;;25.35;26.52
58072;BME280;60383;46.626;18.866;2022-07-11T11:23:23;100692.88;;;24.66;26.82
58072;BME280;60383;46.626;18.866;2022-07-11T11:25:49;100694.69;;;24.36;26.65
58072;BME280;60383;46.626;18.866;2022-07-11T11:28:20;100695.50;;;24.25;27.56
58072;BME280;60383;46.626;18.866;2022-07-11T11:30:56;100694.91;;;24.35;27.39
58072;BME280;60383;46.626;18.866;2022-07-11T11:33:25;100701.50;;;24.40;27.03
58072;BME280;60383;46.626;18.866;2022-07-11T11:36:09;100696.00;;;24.58;27.41
58072;BME280;60383;46.626;18.866;2022-07-11T11:38:37;100699.78;;;24.39;28.04
58072;BME280;60383;46.626;18.866;2022-07-11T11:41:03;100706.94;;;24.47;27.96
58072;BME280;60383;46.626;18.866;2022-07-11T11:43:31;100705.13;;;24.53;28.51
58072;BME280;60383;46.626;18.866;2022-07-11T11:45:57;100711.72;;;24.59;28.25
58072;BME280;60383;46.626;18.866;2022-07-11T11:48:49;100705.97;;;24.65;28.41
58072;BME280;60383;46.626;18.866;2022-07-11T11:51:15;100711.81;;;24.52;28.65
58072;BME280;60383;46.626;18.866;2022-07-11T11:53:46;100706.88;;;24.66;28.72
58072;BME280;60383;46.626;18.866;2022-07-11T11:56:15;100719.38;;;24.63;28.79
58072;BME280;60383;46.626;18.866;2022-07-11T11:58:43;100708.19;;;24.75;28.11
58072;BME280;60383;46.626;18.866;2022-07-11T12:01:13;100694.53;;;24.79;28.19
58072;BME280;60383;46.626;18.866;2022-07-11T12:03:59;100711.69;;;24.82;28.10
58072;BME280;60383;46.626;18.866;2022-07-11T12:06:33;100708.53;;;24.79;28.31
58072;BME280;60383;46.626;18.866;2022-07-11T12:09:03;100697.56;;;24.65;28.22
58072;BME280;60383;46.626;18.866;2022-07-11T12:11:30;100706.88;;;24.78;27.78
58072;BME280;60383;46.626;18.866;2022-07-11T12:13:56;100704.44;;;24.69;27.56
58072;BME280;60383;46.626;18.866;2022-07-11T12:16:22;100701.38;;;24.71;27.29
58072;BME280;60383;46.626;18.866;2022-07-11T12:19:08;100701.63;;;24.69;27.58
58072;BME280;60383;46.626;18.866;2022-07-11T12:21:35;100691.25;;;24.82;28.05
58072;BME280;60383;46.626;18.866;2022-07-11T12:24:04;100693.56;;;24.61;29.05
58072;BME280;60383;46.626;18.866;2022-07-11T12:26:32;100698.28;;;25.08;28.69
58072;BME280;60383;46.626;18.866;2022-07-11T12:29:12;100694.88;;;25.06;28.32
58072;BME280;60383;46.626;18.866;2022-07-11T12:31:49;100697.44;;;25.36;28.31
58072;BME280;60383;46.626;18.866;2022-07-11T12:34:17;100693.56;;;25.66;28.25
58072;BME280;60383;46.626;18.866;2022-07-11T12:36:44;100686.03;;;25.84;25.63
58072;BME280;60383;46.626;18.866;2022-07-11T12:39:24;100685.28;;;26.06;24.99
58072;BME280;60383;46.626;18.866;2022-07-11T12:41:53;100679.25;;;26.48;25.42
58072;BME280;60383;46.626;18.866;2022-07-11T12:44:30;100671.00;;;26.63;24.33
58072;BME280;60383;46.626;18.866;2022-07-11T12:47:15;100670.81;;;26.87;24.04
58072;BME280;60383;46.626;18.866;2022-07-11T12:49:42;100678.91;;;26.84;23.37
58072;BME280;60383;46.626;18.866;2022-07-11T12:52:12;100668.22;;;27.03;23.15
58072;BME280;60383;46.626;18.866;2022-07-11T12:54:38;100661.31;;;26.71;22.99
58072;BME280;60383;46.626;18.866;2022-07-11T12:57:05;100655.28;;;27.02;22.50
58072;BME280;60383;46.626;18.866;2022-07-11T12:59:33;100662.38;;;26.87;22.95
58072;BME280;60383;46.626;18.866;2022-07-11T13:02:07;100672.38;;;26.78;22.45